Time;durP1;ratioP1;P1;durP2;ratioP2;P2;SDS_P1;SDS_P2;PMS_P1;PMS_P2;Temp;Humidity;BMP_temperature;BMP_pressure;BME280_temperature;BME280_humidity;BME280_pressure;Samples;Min_cycle;Max_cycle;Signal;HPM_P1;HPM_P2
2021/04/14 04:55:22;;;;;;;23.80;16.75;;;;;;;9.43;88.20;100286.84;1852511;76;22878;-70
2021/04/14 04:57:53;;;;;;;18.92;15.38;;;;;;;9.70;87.20;100292.01;1850948;77;20996;-69
2021/04/14 05:00:22;;;;;;;23.18;15.98;;;;;;;9.99;84.53;100281.50;1815211;79;21513;-68
2021/04/14 05:02:54;;;;;;;21.37;15.08;;;;;;;10.13;84.04;100269.92;1778016;79;21643;-73
2021/04/14 05:05:27;;;;;;;19.35;14.15;;;;;;;10.34;83.18;100274.08;1839772;77;21552;-71
2021/04/14 05:07:59;;;;;;;18.52;13.43;;;;;;;10.52;82.16;100276.63;1821201;77;21017;-71
2021/04/14 05:11:00;;;;;;;18.40;13.00;;;;;;;10.74;81.25;100272.45;1842114;77;21519;-73
2021/04/14 05:13:32;;;;;;;17.70;13.88;;;;;;;11.02;79.29;100275.26;1835425;77;21465;-67
2021/04/14 05:16:07;;;;;;;21.80;14.50;;;;;;;11.09;78.87;100272.70;1780990;77;21582;-68
2021/04/14 05:18:59;;;;;;;21.57;14.50;;;;;;;11.12;78.19;100271.23;1829866;77;21021;-67
2021/04/14 05:21:41;;;;;;;20.48;13.95;;;;;;;11.07;77.54;100273.71;1821590;77;21005;-69
2021/04/14 05:24:40;;;;;;;17.73;14.68;;;;;;;10.94;77.46;100278.27;1811164;77;21009;-71
2021/04/14 05:27:13;;;;;;;;;;;;;;;10.84;77.92;100267.11;1827192;77;22145;-69
2021/04/14 05:29:50;;;;;;;24.17;14.73;;;;;;;10.77;77.80;100273.60;1799786;77;20513;-73
2021/04/14 05:32:30;;;;;;;23.50;16.20;;;;;;;10.69;78.20;100272.70;1793645;78;22111;-69
2021/04/14 05:35:17;;;;;;;19.98;14.00;;;;;;;10.64;78.24;100272.09;1790939;77;20988;-70
2021/04/14 05:38:24;;;;;;;22.07;15.20;;;;;;;10.61;78.35;100280.91;1821526;77;20937;-71
2021/04/14 05:40:59;;;;;;;19.92;15.18;;;;;;;10.54;78.36;100281.30;1817414;77;22337;-68
2021/04/14 05:43:41;;;;;;;21.75;14.50;;;;;;;10.57;78.71;100279.84;1834564;77;21605;-69
2021/04/14 05:50:58;;;;;;;26.77;16.35;;;;;;;10.76;78.19;100270.16;1824773;77;21053;-72
2021/04/14 05:53:28;;;;;;;26.93;16.93;;;;;;;10.96;77.52;100269.07;1830541;77;21504;-66
2021/04/14 05:55:57;;;;;;;19.80;14.63;;;;;;;11.09;76.36;100274.47;1819983;77;21358;-68
2021/04/14 05:58:26;;;;;;;19.30;14.53;;;;;;;11.17;75.86;100270.98;1834961;77;21578;-70
2021/04/14 06:00:55;;;;;;;23.10;15.55;;;;;;;11.28;75.51;100271.22;1770340;80;21030;-70
2021/04/14 06:03:25;;;;;;;19.75;15.80;;;;;;;11.44;75.34;100264.70;1750492;80;21003;-71
2021/04/14 06:19:34;;;;;;;23.00;14.47;;;;;;;12.24;71.07;100276.17;1839685;77;21056;-72
2021/04/14 06:23:17;;;;;;;24.00;16.30;;;;;;;12.52;69.86;100275.35;1830836;77;21011;-66
2021/04/14 06:26:38;;;;;;;19.27;13.93;;;;;;;12.92;68.44;100281.13;1826443;77;21028;-69
2021/04/14 06:29:35;;;;;;;25.08;15.93;;;;;;;13.35;66.50;100277.16;1825994;77;21547;-66
2021/04/14 06:32:14;;;;;;;19.65;14.35;;;;;;;13.72;64.87;100278.70;1825218;77;20918;-69
2021/04/14 06:34:55;;;;;;;23.75;16.52;;;;;;;13.95;63.51;100269.73;1775073;80;20938;-72
2021/04/14 06:37:24;;;;;;;20.92;16.25;;;;;;;14.07;62.79;100265.43;1763196;80;21566;-70
2021/04/14 06:40:13;;;;;;;27.30;15.72;;;;;;;14.23;62.41;100267.39;1788052;79;21455;-72
2021/04/14 06:42:49;;;;;;;23.90;15.35;;;;;;;14.54;62.09;100270.57;1820640;77;22204;-72
2021/04/14 06:45:29;;;;;;;20.12;14.55;;;;;;;14.80;60.45;100264.82;1819825;77;20973;-65
2021/04/14 06:48:20;;;;;;;20.30;13.50;;;;;;;15.05;59.48;100269.20;1752848;77;21072;-71
2021/04/14 06:50:53;;;;;;;22.93;16.23;;;;;;;15.23;57.46;100259.52;1811439;77;20914;-70
2021/04/14 06:53:39;;;;;;;19.20;13.70;;;;;;;15.32;56.75;100258.86;1775278;79;21507;-70
2021/04/14 06:56:15;;;;;;;16.30;13.53;;;;;;;15.49;55.94;100260.75;1816007;77;21362;-70
2021/04/14 06:58:52;;;;;;;21.53;13.37;;;;;;;15.59;55.93;100256.07;1825168;77;20965;-66
2021/04/14 07:01:25;;;;;;;19.17;13.70;;;;;;;15.68;55.70;100261.09;1769935;80;21532;-66
2021/04/14 07:04:27;;;;;;;22.67;14.40;;;;;;;15.85;55.42;100259.86;1843988;77;20969;-68
2021/04/14 07:06:56;;;;;;;19.90;14.00;;;;;;;15.96;54.41;100259.91;1831777;77;21447;-68
2021/04/14 07:09:43;;;;;;;17.67;13.48;;;;;;;16.00;53.81;100261.31;1798407;77;21200;-67
2021/04/14 07:12:18;;;;;;;18.27;12.45;;;;;;;16.17;52.45;100255.64;1821076;77;21052;-69
2021/04/14 07:14:51;;;;;;;20.17;13.00;;;;;;;16.33;52.13;100256.64;1828659;77;21052;-70
2021/04/14 07:17:59;;;;;;;15.10;12.53;;;;;;;16.44;51.51;100251.84;1831136;77;21024;-68
2021/04/14 07:20:49;;;;;;;16.17;12.82;;;;;;;16.52;51.57;100252.94;1836009;77;20961;-69
2021/04/14 07:23:37;;;;;;;14.35;12.10;;;;;;;16.54;51.12;100252.81;1821042;78;21354;-70
2021/04/14 07:26:41;;;;;;;17.17;13.03;;;;;;;16.54;50.55;100249.72;1823833;77;20985;-69
2021/04/14 07:29:45;;;;;;;14.15;11.93;;;;;;;16.47;50.73;100251.14;1829296;77;21020;-75
2021/04/14 07:32:25;;;;;;;14.53;12.23;;;;;;;16.50;50.35;100246.96;1780889;78;21021;-70
2021/04/14 07:35:20;;;;;;;15.32;12.70;;;;;;;16.59;50.83;100249.36;1821063;77;21020;-68
2021/04/14 07:38:46;;;;;;;18.87;12.58;;;;;;;16.77;50.30;100247.97;1849236;77;22322;-70
2021/04/14 07:41:42;;;;;;;15.60;12.40;;;;;;;17.09;50.07;100245.41;1829840;77;21080;-68
2021/04/14 07:44:19;;;;;;;16.85;11.43;;;;;;;17.55;47.42;100241.22;1823637;77;21499;-68
2021/04/14 07:46:48;;;;;;;20.43;12.75;;;;;;;17.74;47.15;100248.45;1820845;77;20918;-69
2021/04/14 07:49:17;;;;;;;18.92;11.53;;;;;;;17.94;46.18;100243.70;1771501;80;21146;-68
2021/04/14 07:51:46;;;;;;;17.85;12.20;;;;;;;18.16;45.59;100233.98;1799931;77;21041;-68
2021/04/14 07:54:16;;;;;;;16.17;11.93;;;;;;;18.39;45.20;100242.11;1828390;77;21590;-70
2021/04/14 07:56:54;;;;;;;12.68;10.95;;;;;;;18.60;44.62;100236.32;1818853;77;21033;-69
2021/04/14 07:59:44;;;;;;;18.80;11.35;;;;;;;18.82;44.49;100240.55;1808822;79;21001;-73
2021/04/14 08:02:31;;;;;;;18.00;12.00;;;;;;;18.94;44.15;100238.66;1808952;79;20997;-68
2021/04/14 08:05:30;;;;;;;16.48;12.05;;;;;;;18.84;44.65;100233.83;1809808;79;21179;-67
2021/04/14 08:08:05;;;;;;;17.62;11.48;;;;;;;18.88;43.46;100229.95;1809690;79;21009;-78
2021/04/14 08:10:39;;;;;;;13.95;10.18;;;;;;;19.08;42.30;100236.13;1809894;79;20953;-71
2021/04/14 08:13:17;;;;;;;13.30;9.73;;;;;;;19.17;41.07;100229.56;1809729;79;20933;-72
2021/04/14 08:15:49;;;;;;;15.13;10.45;;;;;;;19.17;40.17;100230.87;1787771;79;21563;-70
2021/04/14 08:18:31;;;;;;;14.68;9.90;;;;;;;19.21;39.90;100225.64;1810048;79;21157;-69
2021/04/14 08:21:13;;;;;;;13.35;10.08;;;;;;;19.32;39.48;100216.29;1809907;79;20965;-69
2021/04/14 08:23:54;;;;;;;13.15;9.78;;;;;;;19.34;37.85;100217.47;1810071;79;20914;-69
2021/04/14 08:26:23;;;;;;;12.15;9.55;;;;;;;19.07;39.25;100216.82;1809544;79;21001;-69
2021/04/14 08:28:54;;;;;;;19.45;9.23;;;;;;;19.07;39.77;100205.42;1809955;79;21033;-70
2021/04/14 08:31:36;;;;;;;13.35;9.40;;;;;;;19.20;39.62;100209.45;1810296;77;21205;-70
2021/04/14 08:34:27;;;;;;;12.78;9.10;;;;;;;19.24;39.11;100210.85;1830364;77;21002;-69
2021/04/14 08:37:04;;;;;;;10.72;8.70;;;;;;;19.16;39.62;100208.09;1823217;77;21086;-69
2021/04/14 08:39:48;;;;;;;13.38;9.30;;;;;;;19.24;39.57;100201.61;1796994;77;20982;-69
2021/04/14 08:42:29;;;;;;;17.00;9.58;;;;;;;19.34;39.70;100206.91;1815677;77;20943;-68
2021/04/14 08:45:10;;;;;;;11.70;8.03;;;;;;;19.45;38.86;100194.91;1811996;77;21153;-69
2021/04/14 08:47:52;;;;;;;8.35;6.40;;;;;;;19.49;39.18;100201.58;1843007;77;21512;-69
2021/04/14 08:50:28;;;;;;;10.43;6.90;;;;;;;19.54;39.00;100191.95;1807532;79;20990;-69
2021/04/14 08:53:01;;;;;;;9.80;7.67;;;;;;;19.61;39.16;100188.58;1786142;79;21472;-73
2021/04/14 08:55:30;;;;;;;11.25;7.08;;;;;;;19.69;39.00;100186.56;1807129;78;20982;-71
2021/04/14 08:58:02;;;;;;;8.95;7.00;;;;;;;19.72;39.02;100182.33;1822592;77;22237;-71
2021/04/14 09:00:31;;;;;;;12.28;9.35;;;;;;;19.60;39.02;100176.34;1820511;77;21091;-69
2021/04/14 09:03:03;;;;;;;12.98;9.85;;;;;;;19.52;39.95;100172.77;1829721;77;21553;-70
2021/04/14 09:05:32;;;;;;;11.33;8.48;;;;;;;19.58;39.53;100175.69;1825697;77;20882;-70
2021/04/14 09:08:01;;;;;;;10.90;8.38;;;;;;;19.49;39.84;100172.52;1833452;77;21608;-70
2021/04/14 09:10:41;;;;;;;15.45;7.37;;;;;;;19.36;40.18;100172.45;1813051;77;21040;-69
2021/04/14 09:13:12;;;;;;;10.90;8.63;;;;;;;19.25;40.08;100169.45;1761496;80;21001;-68
2021/04/14 09:15:49;;;;;;;8.80;7.80;;;;;;;19.11;40.50;100163.28;1773623;79;21219;-70
2021/04/14 09:18:39;;;;;;;11.23;7.73;;;;;;;19.01;41.01;100165.89;1813314;77;21749;-71
2021/04/14 09:21:17;;;;;;;11.90;7.35;;;;;;;18.98;41.10;100159.56;1775483;79;20993;-67
2021/04/14 09:23:57;;;;;;;13.03;7.70;;;;;;;18.97;41.51;100160.54;1758633;80;21262;-69
2021/04/14 09:26:31;;;;;;;10.58;7.72;;;;;;;18.92;41.19;100164.06;1748548;81;21089;-70
2021/04/14 09:29:00;;;;;;;14.75;8.10;;;;;;;18.79;41.39;100163.51;1786133;79;21055;-69
2021/04/14 09:31:40;;;;;;;12.18;8.45;;;;;;;18.62;41.26;100165.81;1744229;81;21073;-68
2021/04/14 09:34:34;;;;;;;15.10;8.90;;;;;;;18.46;40.65;100159.33;1746979;81;20911;-71
2021/04/14 09:37:17;;;;;;;11.20;8.08;;;;;;;18.23;41.51;100154.74;1739875;81;21154;-68
2021/04/14 09:40:03;;;;;;;11.12;8.35;;;;;;;18.06;41.92;100154.02;1753753;80;21014;-70
2021/04/14 09:42:40;;;;;;;20.67;11.30;;;;;;;17.97;42.57;100151.71;1775352;79;21032;-73
2021/04/14 09:45:18;;;;;;;;;;;;;;;17.90;42.67;100151.88;1740236;81;21081;-67
2021/04/14 09:47:49;;;;;;;12.45;9.28;;;;;;;17.83;42.52;100149.40;1773115;79;20339;-66
2021/04/14 09:50:35;;;;;;;15.95;10.82;;;;;;;17.70;43.20;100146.13;1778781;79;21391;-68
2021/04/14 09:53:25;;;;;;;20.30;11.78;;;;;;;17.54;43.30;100150.02;1771667;79;20994;-67
2021/04/14 09:56:12;;;;;;;14.05;10.63;;;;;;;17.25;43.82;100151.09;1772333;79;21563;-68
2021/04/14 09:58:55;;;;;;;14.90;10.50;;;;;;;16.97;44.44;100151.68;1746211;81;21505;-69
2021/04/14 10:01:30;;;;;;;15.00;9.85;;;;;;;16.79;44.61;100152.70;1781642;80;21045;-67
2021/04/14 10:04:07;;;;;;;12.98;10.50;;;;;;;16.68;45.00;100149.24;1825178;77;24353;-69
2021/04/14 10:06:35;;;;;;;;;;;;;;;16.61;45.46;100148.38;1788006;79;21654;-68
2021/04/14 10:09:09;;;;;;;14.60;9.65;;;;;;;16.59;45.62;100152.92;1766906;79;20207;-68
2021/04/14 10:11:39;;;;;;;15.05;10.10;;;;;;;16.55;46.05;100152.81;1739653;81;21550;-68
2021/04/14 10:14:14;;;;;;;15.28;10.40;;;;;;;16.53;45.77;100147.31;1794745;79;20950;-69
2021/04/14 10:16:46;;;;;;;16.62;10.38;;;;;;;16.46;45.94;100145.64;1776042;79;21374;-69
2021/04/14 10:19:30;;;;;;;10.75;9.65;;;;;;;16.37;46.18;100147.70;1773287;81;21575;-68
2021/04/14 10:22:12;;;;;;;14.00;10.53;;;;;;;16.33;46.30;100145.79;1767410;80;21151;-68
2021/04/14 10:24:40;;;;;;;15.18;9.38;;;;;;;16.33;46.41;100144.95;1700067;81;20968;-68
2021/04/14 10:27:19;;;;;;;13.38;10.58;;;;;;;16.28;46.64;100146.63;1752996;80;21659;-69
2021/04/14 10:29:48;;;;;;;16.80;11.60;;;;;;;16.23;46.91;100150.08;1761934;81;21363;-70
2021/04/14 10:32:20;;;;;;;15.28;9.83;;;;;;;16.18;47.22;100145.66;1739565;81;21291;-68
2021/04/14 10:34:51;;;;;;;17.80;10.82;;;;;;;16.13;46.99;100149.11;1756430;81;20982;-69
2021/04/14 10:37:25;;;;;;;18.75;11.95;;;;;;;16.05;47.15;100151.48;1770821;79;21033;-68
2021/04/14 10:39:57;;;;;;;18.52;12.37;;;;;;;16.01;47.40;100145.64;1734460;81;21584;-68
2021/04/14 10:42:28;;;;;;;19.48;12.30;;;;;;;15.89;47.65;100139.20;1705374;81;21387;-69
2021/04/14 10:45:12;;;;;;;18.20;11.57;;;;;;;15.72;48.24;100144.41;1779032;80;20969;-66
2021/04/14 10:47:43;;;;;;;14.85;11.43;;;;;;;15.61;48.55;100141.75;1722470;81;21632;-68
2021/04/14 10:50:20;;;;;;;18.75;11.97;;;;;;;15.52;48.80;100141.12;1747445;80;21070;-69
2021/04/14 10:52:58;;;;;;;16.57;11.83;;;;;;;15.47;49.07;100145.87;1763067;81;21069;-69
2021/04/14 10:55:34;;;;;;;16.00;11.53;;;;;;;15.42;49.22;100138.81;1774534;79;23948;-69
2021/04/14 10:58:05;;;;;;;17.95;11.78;;;;;;;15.40;49.61;100142.02;1775332;79;21077;-70
2021/04/14 11:00:39;;;;;;;13.85;11.25;;;;;;;15.38;49.79;100141.30;1771521;79;21042;-67
2021/04/14 11:03:15;;;;;;;16.65;11.90;;;;;;;15.38;49.83;100136.05;1741246;80;21089;-70
2021/04/14 11:05:51;;;;;;;14.20;11.60;;;;;;;15.35;49.98;100143.20;1780036;79;21047;-70
2021/04/14 11:08:21;;;;;;;17.40;12.60;;;;;;;15.37;49.87;100139.15;1750287;80;21153;-67
2021/04/14 11:10:52;;;;;;;21.93;13.20;;;;;;;15.38;49.75;100136.89;1751943;80;21646;-70
2021/04/14 11:13:25;;;;;;;21.33;12.93;;;;;;;15.38;49.92;100136.05;1765148;79;21001;-70
2021/04/14 11:15:54;;;;;;;13.25;10.68;;;;;;;15.43;50.15;100137.86;1790640;79;21001;-69
2021/04/14 11:18:42;;;;;;;17.95;11.57;;;;;;;15.53;49.42;100129.66;1788167;79;20945;-72
2021/04/14 11:21:29;;;;;;;16.15;10.58;;;;;;;15.64;49.27;100127.91;1783471;79;21093;-70
2021/04/14 11:24:10;;;;;;;17.05;10.43;;;;;;;15.81;48.81;100127.95;1783935;79;21009;-70
2021/04/14 11:26:49;;;;;;;17.77;10.63;;;;;;;16.00;48.67;100132.14;1780082;79;21041;-70
2021/04/14 11:29:27;;;;;;;16.25;11.05;;;;;;;16.20;48.50;100119.27;1816849;77;21109;-70
2021/04/14 11:31:56;;;;;;;13.18;9.90;;;;;;;16.38;47.99;100124.41;1835641;77;20985;-68
2021/04/14 11:34:33;;;;;;;13.22;11.30;;;;;;;16.56;47.50;100120.30;1824514;77;20974;-69
2021/04/14 11:37:07;;;;;;;14.63;10.75;;;;;;;16.70;47.54;100112.67;1810681;77;21013;-68
2021/04/14 11:39:56;;;;;;;12.47;9.43;;;;;;;16.88;47.34;100115.11;1814545;77;21422;-68
2021/04/14 11:42:30;;;;;;;14.03;10.70;;;;;;;17.06;46.73;100107.53;1771684;79;20982;-70
2021/04/14 11:45:01;;;;;;;14.25;10.32;;;;;;;17.25;46.34;100099.77;1740197;79;20941;-69
2021/04/14 11:47:34;;;;;;;12.50;9.80;;;;;;;17.39;45.36;100105.70;1763099;80;21533;-69
2021/04/14 11:50:16;;;;;;;12.40;10.45;;;;;;;17.49;45.24;100104.81;1749798;80;20954;-69
2021/04/14 11:52:56;;;;;;;13.53;10.80;;;;;;;17.59;44.67;100106.20;1757982;80;21204;-68
2021/04/14 11:55:29;;;;;;;13.50;10.38;;;;;;;17.66;44.58;100096.82;1755442;80;21099;-68
2021/04/14 11:58:04;;;;;;;12.50;9.95;;;;;;;17.75;44.59;100102.63;1756486;80;21695;-69
2021/04/14 12:00:42;;;;;;;13.40;10.13;;;;;;;17.79;44.60;100094.83;1772109;81;21358;-68
2021/04/14 12:03:25;;;;;;;12.65;10.90;;;;;;;17.86;44.44;100093.34;1744221;81;21065;-69
2021/04/14 12:05:57;;;;;;;15.88;11.55;;;;;;;17.91;44.12;100086.37;1772081;80;21660;-68
2021/04/14 12:08:27;;;;;;;11.57;9.73;;;;;;;17.97;44.25;100086.67;1756758;81;21564;-69
2021/04/14 12:10:56;;;;;;;22.07;14.03;;;;;;;17.93;43.30;100080.00;1755318;81;21073;-67
2021/04/14 12:13:28;;;;;;;16.55;10.55;;;;;;;17.73;43.95;100075.59;1747243;81;21368;-71
2021/04/14 12:15:58;;;;;;;13.05;9.33;;;;;;;17.62;44.24;100077.78;1744726;81;21006;-72
2021/04/14 12:18:29;;;;;;;14.03;10.45;;;;;;;17.54;43.92;100068.89;1760224;80;21089;-72
2021/04/14 12:21:00;;;;;;;14.87;9.63;;;;;;;17.37;44.78;100067.66;1763926;80;21006;-72
2021/04/14 12:23:30;;;;;;;11.45;9.35;;;;;;;17.19;45.75;100067.41;1755143;80;21027;-69
2021/04/14 12:26:04;;;;;;;14.85;10.32;;;;;;;17.10;46.41;100066.02;1753671;80;21501;-70
2021/04/14 12:28:34;;;;;;;17.07;9.70;;;;;;;17.02;46.75;100065.81;1759464;80;21697;-71
2021/04/14 12:31:03;;;;;;;11.25;9.58;;;;;;;17.00;46.49;100064.63;1760030;80;20982;-68
2021/04/14 12:33:34;;;;;;;14.25;9.95;;;;;;;17.02;46.47;100069.28;1758545;80;21041;-71
2021/04/14 12:36:02;;;;;;;12.98;9.83;;;;;;;17.05;46.27;100066.39;1764400;80;21041;-68
2021/04/14 12:38:31;;;;;;;15.20;9.58;;;;;;;17.10;46.30;100057.64;1757728;80;21210;-71
2021/04/14 12:41:01;;;;;;;19.20;10.32;;;;;;;17.20;46.02;100067.73;1753583;80;21646;-71
2021/04/14 12:43:32;;;;;;;16.70;9.70;;;;;;;17.28;45.92;100057.89;1779241;79;21038;-71
2021/04/14 12:46:00;;;;;;;17.00;9.93;;;;;;;17.37;45.60;100058.93;1763008;81;21664;-73
2021/04/14 12:48:34;;;;;;;12.33;9.33;;;;;;;17.42;45.70;100062.02;1745127;80;21038;-74
2021/04/14 12:51:27;;;;;;;12.13;8.80;;;;;;;17.45;45.72;100061.27;1744824;80;21209;-71
2021/04/14 12:54:21;;;;;;;14.10;9.33;;;;;;;17.49;45.26;100050.01;1748582;80;21062;-72
2021/04/14 12:57:13;;;;;;;14.98;9.45;;;;;;;17.49;44.93;100056.59;1751718;80;20960;-71
2021/04/14 12:59:54;;;;;;;17.00;10.18;;;;;;;17.46;45.29;100058.16;1740946;81;21005;-74
2021/04/14 13:02:39;;;;;;;14.10;9.93;;;;;;;17.45;45.40;100053.38;1740131;82;21077;-73
2021/04/14 13:05:38;;;;;;;16.25;10.85;;;;;;;17.46;45.18;100060.80;1804100;79;21130;-73
2021/04/14 13:08:17;;;;;;;13.18;10.20;;;;;;;17.39;45.09;100050.42;1806571;78;21677;-72
2021/04/14 13:10:57;;;;;;;11.88;9.03;;;;;;;17.33;45.36;100055.23;1804100;78;21075;-72
2021/04/14 13:13:28;;;;;;;13.10;8.58;;;;;;;17.33;45.31;100050.45;1802988;78;21080;-71
2021/04/14 13:16:04;;;;;;;18.20;10.10;;;;;;;17.38;44.78;100048.75;1816333;78;21044;-71
2021/04/14 13:18:36;;;;;;;13.65;9.50;;;;;;;17.46;44.40;100058.16;1806521;78;21360;-72
2021/04/14 13:21:24;;;;;;;11.35;9.25;;;;;;;17.40;44.40;100043.72;1806871;78;21009;-73
2021/04/14 13:24:16;;;;;;;11.38;9.45;;;;;;;17.37;44.69;100053.66;1760664;80;20982;-73
2021/04/14 13:26:56;;;;;;;12.13;8.83;;;;;;;17.37;44.03;100053.19;1745402;81;21595;-70
2021/04/14 13:29:33;;;;;;;10.72;8.15;;;;;;;17.30;44.19;100052.86;1767821;80;21565;-69
2021/04/14 13:32:23;;;;;;;13.20;8.98;;;;;;;17.28;43.92;100049.52;1760869;80;21115;-70
2021/04/14 13:35:21;;;;;;;14.33;9.70;;;;;;;17.29;43.67;100051.19;1755466;81;21017;-70
2021/04/14 13:38:03;;;;;;;15.93;11.10;;;;;;;17.25;43.79;100044.98;1756228;81;21511;-72
2021/04/14 13:41:00;;;;;;;14.70;9.55;;;;;;;17.19;43.67;100047.68;1741232;81;21496;-71
2021/04/14 13:43:49;;;;;;;14.95;8.53;;;;;;;17.13;43.67;100044.72;1744096;81;21169;-68
2021/04/14 13:46:38;;;;;;;10.50;8.95;;;;;;;17.02;43.94;100040.34;1758910;81;20946;-69
2021/04/14 13:49:11;;;;;;;14.38;9.65;;;;;;;16.95;43.75;100047.06;1756750;81;21587;-70
2021/04/14 13:51:47;;;;;;;10.13;8.63;;;;;;;16.85;43.76;100039.56;1755795;81;21512;-72
2021/04/14 13:54:21;;;;;;;21.17;10.30;;;;;;;16.77;44.09;100045.95;1736941;81;21602;-68
2021/04/14 13:56:54;;;;;;;14.55;9.38;;;;;;;16.66;44.51;100045.03;1757034;81;21080;-69
2021/04/14 14:00:00;;;;;;;14.28;10.45;;;;;;;16.58;44.63;100038.20;1755516;81;21009;-74
2021/04/14 14:02:37;;;;;;;11.97;9.33;;;;;;;16.50;45.22;100045.88;1751097;81;21539;-71
2021/04/14 14:05:35;;;;;;;15.70;12.28;;;;;;;16.46;45.10;100036.56;1801840;78;21115;-64
2021/04/14 14:08:31;;;;;;;21.25;15.15;;;;;;;16.39;45.31;100041.14;1804719;78;21053;-72
2021/04/14 14:11:16;;;;;;;17.32;10.65;;;;;;;16.28;45.61;100041.99;1809169;78;21042;-70
2021/04/14 14:13:46;;;;;;;20.70;13.28;;;;;;;16.21;46.04;100038.18;1799817;79;24636;-69
2021/04/14 14:16:21;;;;;;;23.52;15.18;;;;;;;16.19;46.31;100036.98;1791664;79;21169;-69
2021/04/14 14:19:00;;;;;;;16.60;12.55;;;;;;;16.17;46.41;100034.13;1753247;79;21001;-68
2021/04/14 14:21:32;;;;;;;24.90;16.93;;;;;;;16.11;46.35;100038.06;1773895;80;21037;-68
2021/04/14 14:24:01;;;;;;;26.15;16.23;;;;;;;16.00;46.51;100032.81;1759162;79;21087;-68
2021/04/14 14:26:32;;;;;;;31.70;14.90;;;;;;;15.92;46.67;100032.12;1815846;79;21135;-68
2021/04/14 14:29:01;;;;;;;17.85;10.82;;;;;;;15.87;47.04;100029.50;1815888;79;20957;-68
